createdAt,value
2018-02-07T00:02:07.867Z,29.10
2018-02-07T00:04:37.384Z,33.05
2018-02-07T00:07:06.910Z,32.53
2018-02-07T00:09:35.674Z,38.42
2018-02-07T00:12:04.438Z,32.88
2018-02-07T00:14:33.188Z,32.17
2018-02-07T00:17:01.955Z,32.13
2018-02-07T00:19:30.703Z,30.08
2018-02-07T00:21:59.458Z,34.28
2018-02-07T00:24:28.210Z,32.75
2018-02-07T00:26:57.741Z,29.50
2018-02-07T00:29:26.487Z,39.30
2018-02-07T00:31:55.250Z,28.90
2018-02-07T00:34:23.998Z,33.40
2018-02-07T00:36:52.767Z,29.35
2018-02-07T00:39:22.293Z,29.08
2018-02-07T00:41:51.075Z,32.80
2018-02-07T00:44:19.828Z,38.20
2018-02-07T00:46:48.592Z,43.87
2018-02-07T00:49:17.344Z,29.73
2018-02-07T00:51:46.115Z,30.02
2018-02-07T00:54:15.628Z,38.30
2018-02-07T00:56:45.166Z,31.62
2018-02-07T00:59:13.914Z,32.45
2018-02-07T01:01:43.435Z,38.05
2018-02-07T01:04:12.181Z,39.05
2018-02-07T01:06:40.951Z,31.65
2018-02-07T01:09:09.694Z,29.12
2018-02-07T01:11:38.464Z,32.40
2018-02-07T01:14:07.212Z,39.30
2018-02-07T01:16:35.973Z,31.77
2018-02-07T01:19:04.707Z,37.85
2018-02-07T01:21:33.482Z,32.38
2018-02-07T01:24:02.241Z,33.55
2018-02-07T01:26:31.019Z,33.72
2018-02-07T01:28:59.771Z,37.85
2018-02-07T01:31:28.532Z,34.03
2018-02-07T01:33:57.285Z,36.60
2018-02-07T01:36:26.556Z,37.28
2018-02-07T01:38:55.319Z,36.60
2018-02-07T01:41:24.083Z,34.55
2018-02-07T01:43:52.834Z,30.77
2018-02-07T01:46:22.352Z,33.58
2018-02-07T01:48:51.880Z,34.95
2018-02-07T01:51:20.656Z,34.70
2018-02-07T01:53:50.263Z,35.95
2018-02-07T01:56:19.028Z,35.03
2018-02-07T01:58:47.778Z,34.47
2018-02-07T02:01:16.464Z,35.70
2018-02-07T02:03:45.132Z,30.42
2018-02-07T02:06:13.810Z,34.78
2018-02-07T02:08:42.470Z,36.75
2018-02-07T02:11:11.146Z,40.10
2018-02-07T02:13:39.795Z,37.47
2018-02-07T02:16:08.458Z,41.05
2018-02-07T02:18:37.119Z,35.08
2018-02-07T02:21:05.795Z,42.75
2018-02-07T02:23:34.455Z,36.90
2018-02-07T02:26:03.131Z,42.00
2018-02-07T02:28:31.795Z,33.70
2018-02-07T02:31:00.502Z,37.70
2018-02-07T02:33:29.163Z,43.95
2018-02-07T02:36:09.050Z,34.33
2018-02-07T02:38:37.706Z,38.05
2018-02-07T02:41:06.380Z,37.90
2018-02-07T02:43:35.795Z,37.30
2018-02-07T02:46:05.073Z,38.67
2018-02-07T02:48:34.495Z,41.83
2018-02-07T02:51:03.216Z,39.55
2018-02-07T02:53:31.866Z,39.88
2018-02-07T02:56:01.307Z,37.88
2018-02-07T02:58:30.051Z,47.70
2018-02-07T03:00:59.478Z,35.92
2018-02-07T03:03:28.140Z,36.97
2018-02-07T03:05:57.591Z,36.20
2018-02-07T03:08:26.263Z,35.10
2018-02-07T03:10:54.758Z,39.53
2018-02-07T03:13:23.077Z,36.92
2018-02-07T03:15:51.759Z,37.50
2018-02-07T03:18:20.422Z,35.17
2018-02-07T03:20:49.099Z,35.35
2018-02-07T03:23:17.799Z,42.97
2018-02-07T03:25:46.471Z,37.95
2018-02-07T03:28:15.133Z,39.83
2018-02-07T03:30:43.796Z,40.95
2018-02-07T03:33:13.228Z,38.45
2018-02-07T03:35:41.902Z,37.28
2018-02-07T03:38:11.331Z,39.80
2018-02-07T03:40:40.771Z,38.08
2018-02-07T03:43:09.427Z,42.25
2018-02-07T03:45:38.111Z,41.10
2018-02-07T03:48:06.775Z,40.10
2018-02-07T03:50:35.451Z,39.85
2018-02-07T03:53:04.867Z,36.67
2018-02-07T03:55:33.547Z,37.85
2018-02-07T03:58:02.216Z,38.22
2018-02-07T04:00:31.663Z,37.67
2018-02-07T04:03:00.315Z,42.95
2018-02-07T04:05:29.753Z,40.28
2018-02-07T04:07:58.410Z,37.38
2018-02-07T04:10:27.855Z,38.33
2018-02-07T04:12:56.567Z,39.20
2018-02-07T04:15:25.247Z,38.47
2018-02-07T04:17:59.476Z,40.72
2018-02-07T04:20:28.158Z,40.35
2018-02-07T04:22:56.500Z,45.20
2018-02-07T04:25:25.174Z,40.97
2018-02-07T04:27:53.831Z,39.50
2018-02-07T04:30:23.299Z,39.08
2018-02-07T04:32:51.950Z,41.30
2018-02-07T04:35:20.606Z,45.00
2018-02-07T04:37:49.271Z,34.90
2018-02-07T04:40:17.939Z,38.60
2018-02-07T04:42:46.623Z,46.97
2018-02-07T04:45:15.275Z,37.35
2018-02-07T04:47:43.620Z,39.65
2018-02-07T04:50:12.279Z,38.28
2018-02-07T04:52:40.955Z,42.35
2018-02-07T04:55:09.617Z,45.92
2018-02-07T04:57:39.070Z,41.45
2018-02-07T05:00:07.726Z,42.80
2018-02-07T05:02:36.390Z,37.90
2018-02-07T05:05:05.826Z,37.63
2018-02-07T05:07:34.479Z,45.85
2018-02-07T05:10:02.842Z,38.45
2018-02-07T05:12:31.699Z,38.97
2018-02-07T05:15:00.383Z,46.72
2018-02-07T05:17:29.056Z,45.25
2018-02-07T05:19:57.743Z,41.30
2018-02-07T05:22:26.403Z,42.97
2018-02-07T05:24:55.071Z,38.58
2018-02-07T05:27:24.814Z,50.12
2018-02-07T05:29:53.590Z,42.45
2018-02-07T05:32:23.774Z,45.22
2018-02-07T05:34:56.170Z,45.03
2018-02-07T05:37:25.756Z,44.97
2018-02-07T05:39:54.436Z,47.03
2018-02-07T05:42:23.131Z,46.70
2018-02-07T05:44:52.794Z,42.83
2018-02-07T05:47:21.586Z,37.67
2018-02-07T05:49:49.738Z,42.17
2018-02-07T05:52:18.411Z,44.78
2018-02-07T05:54:47.846Z,41.78
2018-02-07T05:57:16.505Z,45.20
2018-02-07T05:59:45.980Z,48.60
2018-02-07T06:02:14.662Z,50.03
2018-02-07T06:04:43.370Z,45.53
2018-02-07T06:07:11.863Z,41.33
2018-02-07T06:09:41.892Z,46.37
2018-02-07T06:12:14.224Z,58.75
2018-02-07T06:14:42.911Z,45.55
2018-02-07T06:17:12.040Z,42.30
2018-02-07T06:19:41.486Z,55.53
2018-02-07T06:22:10.152Z,54.13
2018-02-07T06:24:38.817Z,45.80
2018-02-07T06:27:08.316Z,46.85
2018-02-07T06:29:37.747Z,45.38
2018-02-07T06:32:06.407Z,42.60
2018-02-07T06:34:35.898Z,48.30
2018-02-07T06:37:04.235Z,40.75
2018-02-07T06:39:32.915Z,45.22
2018-02-07T06:42:02.414Z,51.10
2018-02-07T06:44:31.116Z,44.78
2018-02-07T06:46:59.775Z,46.63
2018-02-07T06:49:29.234Z,56.85
2018-02-07T06:51:57.891Z,55.72
2018-02-07T06:54:26.560Z,49.47
2018-02-07T06:56:55.227Z,59.30
2018-02-07T06:59:24.650Z,58.70
2018-02-07T07:01:54.122Z,52.88
2018-02-07T07:04:22.823Z,56.78
2018-02-07T07:06:52.251Z,50.15
2018-02-07T07:09:21.859Z,51.70
2018-02-07T07:11:50.510Z,51.40
2018-02-07T07:14:19.277Z,51.28
2018-02-07T07:16:47.970Z,47.55
2018-02-07T07:19:16.643Z,50.12
2018-02-07T07:21:45.341Z,42.28
2018-02-07T07:24:15.088Z,42.95
2018-02-07T07:26:44.536Z,45.97
2018-02-07T07:29:13.195Z,46.72
2018-02-07T07:31:41.869Z,54.85
2018-02-07T07:34:11.310Z,53.92
2018-02-07T07:39:45.730Z,47.33
2018-02-07T07:42:14.403Z,49.22
2018-02-07T07:44:43.827Z,44.03
2018-02-07T07:47:12.154Z,50.28
2018-02-07T07:49:40.668Z,50.15
2018-02-07T07:52:09.860Z,51.60
2018-02-07T07:54:39.309Z,47.22
2018-02-07T07:57:07.997Z,53.55
2018-02-07T07:59:36.662Z,48.83
2018-02-07T08:02:05.326Z,56.55
2018-02-07T08:04:33.972Z,50.70
2018-02-07T08:07:02.633Z,52.45
2018-02-07T08:09:31.287Z,54.58
2018-02-07T08:12:00.743Z,50.35
2018-02-07T08:14:29.405Z,54.08
2018-02-07T08:16:58.090Z,49.90
2018-02-07T08:19:26.747Z,45.83
2018-02-07T08:21:56.168Z,57.55
2018-02-07T08:24:24.868Z,54.05
2018-02-07T08:26:53.703Z,59.35
2018-02-07T08:29:22.382Z,46.85
2018-02-07T08:31:51.048Z,50.30
2018-02-07T08:34:20.604Z,50.65
2018-02-07T08:36:50.047Z,53.08
2018-02-07T08:39:18.697Z,53.30
2018-02-07T08:41:47.371Z,54.90
2018-02-07T08:44:16.654Z,50.50
2018-02-07T08:46:45.324Z,57.83
2018-02-07T08:49:13.999Z,47.65
2018-02-07T08:51:42.342Z,57.72
2018-02-07T08:54:11.799Z,47.62
2018-02-07T08:56:41.272Z,50.97
2018-02-07T08:59:09.930Z,54.88
2018-02-07T09:01:38.603Z,53.13
2018-02-07T09:04:07.248Z,53.85
2018-02-07T09:06:35.740Z,58.33
2018-02-07T09:09:03.548Z,54.70
2018-02-07T09:11:32.715Z,52.70
2018-02-07T09:14:01.383Z,58.80
2018-02-07T09:16:30.359Z,52.65
2018-02-07T09:18:59.028Z,58.33
2018-02-07T09:21:28.110Z,53.38
2018-02-07T09:23:56.955Z,61.65
2018-02-07T09:26:27.013Z,61.03
2018-02-07T09:28:55.775Z,55.88
2018-02-07T09:31:24.442Z,59.60
2018-02-07T09:33:53.097Z,62.05
2018-02-07T09:36:22.523Z,55.90
2018-02-07T09:38:51.176Z,67.80
2018-02-07T09:41:19.764Z,57.03
2018-02-07T09:43:49.183Z,53.80
2018-02-07T09:46:18.594Z,56.28
2018-02-07T09:48:47.271Z,50.78
2018-02-07T09:51:15.935Z,62.33
2018-02-07T09:53:44.595Z,55.58
2018-02-07T09:56:13.270Z,58.85
2018-02-07T09:58:42.708Z,58.40
2018-02-07T10:01:11.368Z,58.00
2018-02-07T10:03:40.920Z,63.97
2018-02-07T10:06:10.348Z,55.20
2018-02-07T10:08:39.000Z,56.35
2018-02-07T10:11:07.663Z,55.67
2018-02-07T10:13:36.326Z,61.65
2018-02-07T10:16:05.006Z,53.65
2018-02-07T10:18:33.670Z,60.12
2018-02-07T10:21:02.338Z,60.60
2018-02-07T10:23:31.762Z,58.22
2018-02-07T10:26:00.242Z,59.00
2018-02-07T10:28:28.943Z,65.55
2018-02-07T10:30:57.599Z,58.05
2018-02-07T10:33:26.274Z,56.85
2018-02-07T10:35:55.922Z,68.10
2018-02-07T10:38:24.599Z,78.55
2018-02-07T10:40:53.266Z,64.43
2018-02-07T10:43:22.690Z,62.13
2018-02-07T10:45:51.363Z,66.93
2018-02-07T10:48:20.783Z,64.90
2018-02-07T10:50:49.517Z,69.72
2018-02-07T10:53:19.066Z,56.22
2018-02-07T10:55:48.486Z,64.20
2018-02-07T10:58:17.159Z,70.35
2018-02-07T11:00:45.814Z,67.57
2018-02-07T11:03:14.495Z,63.30
2018-02-07T11:05:43.459Z,57.92
2018-02-07T11:08:12.122Z,57.55
2018-02-07T11:10:40.787Z,57.50
2018-02-07T11:13:11.107Z,59.53
2018-02-07T11:15:40.550Z,64.95
2018-02-07T11:18:09.202Z,63.95
2018-02-07T11:20:37.850Z,58.65
2018-02-07T11:23:05.866Z,58.17
2018-02-07T11:25:35.284Z,59.85
2018-02-07T11:28:03.955Z,55.17
2018-02-07T11:30:33.367Z,54.35
2018-02-07T11:33:02.470Z,51.63
2018-02-07T11:35:31.137Z,58.47
2018-02-07T11:38:00.223Z,59.08
2018-02-07T11:40:28.887Z,59.72
2018-02-07T11:42:57.543Z,71.45
2018-02-07T11:45:26.203Z,58.92
2018-02-07T11:47:55.295Z,62.50
2018-02-07T11:50:24.726Z,62.97
2018-02-07T11:52:53.376Z,54.17
2018-02-07T11:55:23.319Z,61.63
2018-02-07T11:57:51.967Z,53.25
2018-02-07T12:00:20.614Z,60.35
2018-02-07T12:02:49.270Z,64.53
2018-02-07T12:05:18.691Z,57.17
2018-02-07T12:07:47.371Z,57.92
2018-02-07T12:10:15.840Z,53.53
2018-02-07T12:12:45.276Z,55.92
2018-02-07T12:15:14.815Z,50.15
2018-02-07T12:17:43.506Z,59.17
2018-02-07T12:20:12.150Z,54.60
2018-02-07T12:22:40.807Z,54.45
2018-02-07T12:25:10.250Z,56.08
2018-02-07T12:27:38.905Z,55.97
2018-02-07T12:30:08.338Z,55.17
2018-02-07T12:32:37.016Z,49.15
2018-02-07T12:35:05.344Z,48.67
2018-02-07T12:37:34.678Z,50.42
2018-02-07T12:40:03.341Z,50.28
2018-02-07T12:42:32.795Z,50.28
2018-02-07T12:45:01.487Z,56.05
2018-02-07T12:47:30.344Z,52.28
2018-02-07T12:49:59.443Z,52.78
2018-02-07T12:52:28.132Z,51.22
2018-02-07T12:54:56.974Z,48.87
2018-02-07T12:57:25.626Z,48.78
2018-02-07T12:59:54.312Z,49.65
2018-02-07T13:02:22.969Z,56.58
2018-02-07T13:04:52.389Z,47.85
2018-02-07T13:07:21.067Z,48.50
2018-02-07T13:09:49.719Z,48.97
2018-02-07T13:12:18.408Z,49.08
2018-02-07T13:14:47.064Z,50.55
2018-02-07T13:17:15.719Z,52.17
2018-02-07T13:19:44.375Z,59.75
2018-02-07T13:22:13.033Z,55.45
2018-02-07T13:24:41.703Z,51.58
2018-02-07T13:27:10.350Z,49.20
2018-02-07T13:29:39.770Z,53.92
2018-02-07T13:32:08.442Z,70.03
2018-02-07T13:34:38.274Z,44.22
2018-02-07T13:37:06.934Z,51.80
2018-02-07T13:39:36.367Z,47.95
2018-02-07T13:42:05.027Z,57.90
2018-02-07T13:44:33.666Z,57.08
2018-02-07T13:47:02.338Z,46.58
2018-02-07T13:49:31.088Z,54.75
2018-02-07T13:52:00.536Z,53.08
2018-02-07T13:54:29.188Z,48.08
2018-02-07T13:56:58.608Z,62.35
2018-02-07T13:59:27.371Z,47.62
2018-02-07T14:01:56.015Z,55.80
2018-02-07T14:04:24.670Z,52.35
2018-02-07T14:06:53.337Z,57.03
2018-02-07T14:09:22.779Z,52.60
2018-02-07T14:11:51.429Z,53.58
2018-02-07T14:14:21.558Z,48.00
2018-02-07T14:16:50.216Z,61.80
2018-02-07T14:19:19.668Z,47.75
2018-02-07T14:21:48.328Z,50.03
2018-02-07T14:24:17.742Z,51.42
2018-02-07T14:26:47.091Z,52.13
2018-02-07T14:29:15.738Z,54.03
2018-02-07T14:31:44.411Z,51.17
2018-02-07T14:34:13.076Z,66.95
2018-02-07T14:36:41.727Z,54.88
2018-02-07T14:39:10.403Z,50.67
2018-02-07T14:41:39.056Z,63.70
2018-02-07T14:44:07.555Z,66.53
2018-02-07T14:46:36.212Z,59.55
2018-02-07T14:49:05.635Z,59.65
2018-02-07T14:51:34.295Z,61.30
2018-02-07T14:54:03.719Z,67.25
2018-02-07T14:56:32.407Z,67.57
2018-02-07T14:59:01.377Z,65.43
2018-02-07T15:01:30.032Z,59.88
2018-02-07T15:03:58.707Z,70.35
2018-02-07T15:06:27.368Z,67.32
2018-02-07T15:08:56.050Z,63.35
2018-02-07T15:11:25.671Z,64.75
2018-02-07T15:13:54.330Z,69.90
2018-02-07T15:16:23.767Z,66.15
2018-02-07T15:18:52.427Z,65.95
2018-02-07T15:21:21.902Z,73.25
2018-02-07T15:23:50.762Z,68.43
2018-02-07T15:26:20.341Z,74.93
2018-02-07T15:28:49.635Z,65.78
2018-02-07T15:31:18.316Z,60.47
2018-02-07T15:33:47.734Z,62.17
2018-02-07T15:36:16.394Z,70.15
2018-02-07T15:38:45.654Z,65.50
2018-02-07T15:41:14.320Z,65.72
2018-02-07T15:43:42.807Z,78.22
2018-02-07T15:46:11.479Z,64.97
2018-02-07T15:48:40.135Z,72.82
2018-02-07T15:51:09.563Z,63.47
2018-02-07T15:53:38.234Z,60.80
2018-02-07T15:56:07.658Z,70.43
2018-02-07T15:58:36.310Z,69.55
2018-02-07T16:01:04.983Z,67.90
2018-02-07T16:03:33.642Z,74.80
2018-02-07T16:06:03.013Z,70.32
2018-02-07T16:08:31.668Z,67.57
2018-02-07T16:11:00.371Z,67.70
2018-02-07T16:13:29.790Z,71.80
2018-02-07T16:15:58.467Z,63.33
2018-02-07T16:18:27.923Z,70.00
2018-02-07T16:20:56.583Z,64.53
2018-02-07T16:23:25.058Z,74.07
2018-02-07T16:25:54.237Z,61.03
2018-02-07T16:28:23.675Z,60.55
2018-02-07T16:30:52.327Z,71.82
2018-02-07T16:33:20.672Z,69.45
2018-02-07T16:35:49.340Z,63.60
2018-02-07T16:38:18.507Z,61.55
2018-02-07T16:40:47.179Z,66.00
2018-02-07T16:43:16.606Z,73.43
2018-02-07T16:45:45.294Z,66.18
2018-02-07T16:48:13.970Z,66.90
2018-02-07T16:50:42.621Z,67.80
2018-02-07T16:53:11.340Z,76.15
2018-02-07T16:55:40.164Z,74.47
2018-02-07T16:58:08.846Z,68.47
2018-02-07T17:00:37.519Z,69.55
2018-02-07T17:03:06.175Z,77.90
2018-02-07T17:05:35.606Z,72.10
2018-02-07T17:08:03.931Z,69.10
2018-02-07T17:10:32.616Z,75.95
2018-02-07T17:13:01.341Z,78.07
2018-02-07T17:15:30.760Z,72.05
2018-02-07T17:17:59.409Z,69.93
2018-02-07T17:20:28.067Z,73.05
2018-02-07T17:22:56.747Z,75.28
2018-02-07T17:25:25.222Z,84.28
2018-02-07T17:27:54.106Z,79.32
2018-02-07T17:30:22.767Z,83.30
2018-02-07T17:32:52.262Z,77.25
2018-02-07T17:35:21.710Z,73.65
2018-02-07T17:37:51.262Z,72.05
2018-02-07T17:40:19.930Z,75.90
2018-02-07T17:42:48.591Z,82.50
2018-02-07T17:45:17.272Z,73.87
2018-02-07T17:47:45.946Z,98.32
2018-02-07T17:50:14.268Z,70.22
2018-02-07T17:52:42.934Z,77.55
2018-02-07T17:55:11.583Z,75.85
2018-02-07T17:57:40.256Z,73.82
2018-02-07T18:00:08.905Z,73.70
2018-02-07T18:02:37.584Z,78.45
2018-02-07T18:05:06.255Z,76.20
2018-02-07T18:07:34.942Z,70.15
2018-02-07T18:10:03.266Z,73.25
2018-02-07T18:12:31.926Z,67.12
2018-02-07T18:15:00.599Z,78.20
2018-02-07T18:17:29.256Z,74.37
2018-02-07T18:19:57.922Z,82.07
2018-02-07T18:22:27.344Z,75.68
2018-02-07T18:24:56.840Z,77.95
2018-02-07T18:27:26.263Z,74.78
2018-02-07T18:29:54.919Z,78.78
2018-02-07T18:32:23.582Z,75.00
2018-02-07T18:34:52.248Z,84.32
2018-02-07T18:37:20.930Z,75.60
2018-02-07T18:39:49.584Z,89.35
2018-02-07T18:42:18.998Z,84.60
2018-02-07T18:44:47.691Z,87.72
2018-02-07T18:47:16.342Z,85.85
2018-02-07T18:49:45.037Z,84.65
2018-02-07T18:52:15.206Z,82.68
2018-02-07T18:54:43.863Z,75.75
2018-02-07T18:57:12.529Z,95.95
2018-02-07T18:59:41.946Z,77.97
2018-02-07T19:02:10.624Z,84.37
2018-02-07T19:04:40.039Z,91.90
2018-02-07T19:07:09.476Z,93.32
2018-02-07T19:09:38.154Z,92.70
2018-02-07T19:12:07.579Z,88.22
2018-02-07T19:14:36.250Z,88.75
2018-02-07T19:17:04.571Z,80.70
2018-02-07T19:19:33.237Z,88.35
2018-02-07T19:22:01.904Z,94.62
2018-02-07T19:24:30.649Z,94.82
2018-02-07T19:26:59.993Z,95.50
2018-02-07T19:29:29.371Z,88.20
2018-02-07T19:31:58.055Z,88.12
2018-02-07T19:34:26.726Z,98.78
2018-02-07T19:36:56.158Z,87.60
2018-02-07T19:39:24.883Z,92.97
2018-02-07T19:41:53.549Z,96.03
2018-02-07T19:44:22.221Z,93.18
2018-02-07T19:46:50.895Z,98.00
2018-02-07T19:49:19.591Z,100.93
2018-02-07T19:51:48.252Z,104.72
2018-02-07T19:54:17.683Z,88.10
2018-02-07T19:56:46.400Z,89.35
2018-02-07T19:59:15.074Z,96.45
2018-02-07T20:01:43.741Z,91.80
2018-02-07T20:04:12.407Z,98.37
2018-02-07T20:06:41.842Z,117.87
2018-02-07T20:09:10.508Z,94.37
2018-02-07T20:11:39.186Z,102.95
2018-02-07T20:14:07.863Z,100.00
2018-02-07T20:16:36.534Z,106.97
2018-02-07T20:19:05.219Z,105.57
2018-02-07T20:21:33.879Z,100.12
2018-02-07T20:24:02.218Z,105.95
2018-02-07T20:26:30.876Z,118.47
2018-02-07T20:29:00.959Z,114.20
2018-02-07T20:31:29.623Z,117.32
2018-02-07T20:33:58.303Z,117.28
2018-02-07T20:36:26.978Z,106.43
2018-02-07T20:38:56.411Z,104.53
2018-02-07T20:41:25.334Z,106.97
2018-02-07T20:43:54.070Z,111.03
2018-02-07T20:46:23.510Z,109.95
2018-02-07T20:48:52.175Z,105.97
2018-02-07T20:51:20.836Z,103.82
2018-02-07T20:53:49.519Z,106.50
2018-02-07T20:56:19.131Z,108.25
2018-02-07T20:58:48.546Z,108.85
2018-02-07T21:01:18.033Z,105.25
2018-02-07T21:03:46.848Z,98.95
2018-02-07T21:06:15.519Z,108.18
2018-02-07T21:08:44.954Z,118.95
2018-02-07T21:11:13.639Z,113.05
2018-02-07T21:13:43.059Z,104.97
2018-02-07T21:16:11.722Z,109.45
2018-02-07T21:18:40.403Z,112.62
2018-02-07T21:21:09.059Z,110.93
2018-02-07T21:23:37.727Z,110.30
2018-02-07T21:26:06.398Z,120.97
2018-02-07T21:28:35.091Z,112.18
2018-02-07T21:31:03.252Z,108.00
2018-02-07T21:33:31.922Z,119.10
2018-02-07T21:36:00.595Z,118.80
2018-02-07T21:38:29.251Z,106.87
2018-02-07T21:40:57.932Z,113.18
2018-02-07T21:43:26.403Z,105.57
2018-02-07T21:45:55.067Z,115.53
2018-02-07T21:48:23.766Z,116.55
2018-02-07T21:50:55.248Z,120.70
2018-02-07T21:53:24.711Z,121.47
2018-02-07T21:55:57.532Z,120.97
2018-02-07T21:58:26.224Z,109.18
2018-02-07T22:00:54.879Z,103.78
2018-02-07T22:03:23.553Z,112.10
2018-02-07T22:05:52.239Z,119.62
2018-02-07T22:08:20.922Z,118.10
2018-02-07T22:10:49.607Z,111.65
2018-02-07T22:13:18.279Z,101.12
2018-02-07T22:15:46.943Z,82.32
2018-02-07T22:18:16.383Z,149.38
2018-02-07T22:20:45.051Z,152.20
2018-02-07T22:23:13.726Z,130.05
2018-02-07T22:25:43.151Z,105.55
2018-02-07T22:28:11.804Z,111.95
2018-02-07T22:30:41.251Z,109.72
2018-02-07T22:33:10.535Z,111.07
2018-02-07T22:35:39.224Z,112.60
2018-02-07T22:38:08.762Z,116.70
2018-02-07T22:40:37.509Z,112.07
2018-02-07T22:43:07.094Z,101.55
2018-02-07T22:45:35.983Z,111.78
2018-02-07T22:48:04.704Z,103.32
2018-02-07T22:50:34.119Z,105.72
2018-02-07T22:53:02.846Z,103.75
2018-02-07T22:55:32.468Z,110.47
2018-02-07T22:58:01.708Z,112.97
2018-02-07T23:00:30.371Z,106.47
2018-02-07T23:02:59.825Z,107.15
2018-02-07T23:05:28.498Z,111.30
2018-02-07T23:07:57.199Z,114.57
2018-02-07T23:10:26.595Z,110.12
2018-02-07T23:12:55.295Z,107.55
2018-02-07T23:15:23.974Z,111.53
2018-02-07T23:17:52.652Z,100.60
2018-02-07T23:20:21.434Z,99.87
2018-02-07T23:22:54.943Z,108.45
2018-02-07T23:25:25.271Z,107.05
2018-02-07T23:27:53.956Z,104.87
2018-02-07T23:30:22.465Z,100.97
2018-02-07T23:32:51.162Z,104.97
2018-02-07T23:35:19.865Z,113.28
2018-02-07T23:37:49.329Z,110.18
2018-02-07T23:40:18.019Z,115.40
2018-02-07T23:42:46.696Z,107.28
2018-02-07T23:45:15.394Z,110.22
2018-02-07T23:47:44.072Z,119.53
2018-02-07T23:50:12.759Z,113.37
2018-02-07T23:52:41.428Z,108.45
2018-02-07T23:55:10.104Z,107.32
2018-02-07T23:57:38.802Z,117.13
